Time;durP1;ratioP1;P1;durP2;ratioP2;P2;SDS_P1;SDS_P2;PMS_P1;PMS_P2;Temp;Humidity;BMP_temperature;BMP_pressure;BME280_temperature;BME280_humidity;BME280_pressure;Samples;Min_cycle;Max_cycle;Signal;HPM_P1;HPM_P2
2022/04/06 00:00:46;;;;;;;19.88;12.27;;;10.60;99.90;;;;;;5047187;28;20025;-42
2022/04/06 00:03:12;;;;;;;20.30;11.55;;;10.60;99.90;;;;;;5046946;28;20021;-42
2022/04/06 00:05:38;;;;;;;16.48;11.50;;;10.60;99.90;;;;;;5047457;28;20017;-42
2022/04/06 00:08:03;;;;;;;20.13;11.27;;;10.60;99.90;;;;;;5046877;28;20067;-43
2022/04/06 00:10:31;;;;;;;24.48;11.93;;;10.60;99.90;;;;;;5047415;28;20435;-42
2022/04/06 00:12:57;;;;;;;20.02;11.30;;;10.60;99.90;;;;;;5046672;28;20106;-43
2022/04/06 00:15:23;;;;;;;19.48;11.25;;;10.60;99.90;;;;;;5047376;28;20021;-43
2022/04/06 00:17:48;;;;;;;17.52;10.40;;;10.60;99.90;;;;;;5045909;28;20507;-42
2022/04/06 00:20:14;;;;;;;20.13;11.35;;;10.60;99.90;;;;;;5047885;28;20539;-43
2022/04/06 00:22:41;;;;;;;19.33;11.15;;;10.60;99.90;;;;;;5046654;28;20645;-42
2022/04/06 00:25:07;;;;;;;17.60;10.35;;;10.60;99.90;;;;;;5047285;28;20625;-42
2022/04/06 00:27:33;;;;;;;22.33;11.50;;;10.60;99.90;;;;;;5047411;28;20021;-42
2022/04/06 00:29:58;;;;;;;21.60;11.52;;;10.60;99.90;;;;;;5045779;28;20376;-43
2022/04/06 00:32:24;;;;;;;15.20;10.23;;;10.60;99.90;;;;;;5047585;28;20793;-42
2022/04/06 00:37:34;;;;;;;20.75;10.23;;;10.60;99.90;;;;;;5046505;28;20043;-43
2022/04/06 00:40:00;;;;;;;20.48;10.63;;;10.60;99.90;;;;;;5046288;28;20637;-43
2022/04/06 00:42:26;;;;;;;18.27;9.82;;;10.60;99.90;;;;;;5047225;28;20419;-42
2022/04/06 00:44:51;;;;;;;19.92;10.18;;;10.60;99.90;;;;;;5045171;28;20036;-43
2022/04/06 00:47:17;;;;;;;20.48;10.80;;;10.60;99.90;;;;;;5046529;28;20120;-42
2022/04/06 00:49:43;;;;;;;20.85;10.68;;;10.60;99.90;;;;;;5046133;28;20033;-43
2022/04/06 00:52:12;;;;;;;17.55;11.13;;;10.60;99.90;;;;;;5045734;28;20072;-44
2022/04/06 00:54:38;;;;;;;19.10;10.98;;;10.60;99.90;;;;;;5046181;28;20017;-42
2022/04/06 00:57:04;;;;;;;20.05;11.00;;;10.60;99.90;;;;;;5046120;28;20079;-42
2022/04/06 00:59:30;;;;;;;19.15;10.25;;;10.60;99.90;;;;;;5045499;28;20484;-43
2022/04/06 01:01:58;;;;;;;19.65;11.05;;;10.60;99.90;;;;;;5045329;28;20128;-42
2022/04/06 01:04:24;;;;;;;23.98;11.65;;;10.70;99.90;;;;;;5046167;28;20712;-41
2022/04/06 01:06:51;;;;;;;21.95;10.70;;;10.70;99.90;;;;;;5045186;28;20025;-44
2022/04/06 01:09:18;;;;;;;20.42;11.75;;;10.70;99.90;;;;;;5045955;28;20051;-41
2022/04/06 01:11:48;;;;;;;18.23;11.63;;;10.60;99.90;;;;;;5034856;28;20389;-43
2022/04/06 01:14:14;;;;;;;18.08;9.90;;;10.60;99.90;;;;;;5045490;28;20532;-45
2022/04/06 01:16:41;;;;;;;18.00;9.90;;;10.60;99.90;;;;;;5045956;28;20025;-43
2022/04/06 01:19:07;;;;;;;18.95;10.70;;;10.60;99.90;;;;;;5045755;28;20028;-42
2022/04/06 01:21:32;;;;;;;21.58;10.77;;;10.60;99.90;;;;;;5046295;28;20029;-43
2022/04/06 01:23:58;;;;;;;21.27;12.00;;;10.60;99.90;;;;;;5045712;28;20082;-43
2022/04/06 01:26:24;;;;;;;23.75;10.68;;;10.50;99.90;;;;;;5045764;28;20048;-43
2022/04/06 01:28:50;;;;;;;20.63;11.15;;;10.60;99.90;;;;;;5045252;28;20044;-43
2022/04/06 01:31:16;;;;;;;22.13;10.80;;;10.60;99.90;;;;;;5045521;28;20039;-42
2022/04/06 01:33:41;;;;;;;16.75;10.68;;;10.50;99.90;;;;;;5044549;28;20480;-43
2022/04/06 01:36:07;;;;;;;18.08;10.23;;;10.50;99.90;;;;;;5045872;28;20044;-41
2022/04/06 01:38:33;;;;;;;18.52;10.30;;;10.50;99.90;;;;;;5045723;28;20102;-44
2022/04/06 01:40:58;;;;;;;17.65;9.65;;;10.60;99.90;;;;;;5043976;28;20021;-42
2022/04/06 01:43:24;;;;;;;20.10;10.90;;;10.50;99.90;;;;;;5045833;28;20029;-42
2022/04/06 01:45:50;;;;;;;20.73;10.23;;;10.50;99.90;;;;;;5045032;28;20624;-43
2022/04/06 01:48:16;;;;;;;19.40;9.90;;;10.50;99.90;;;;;;5044998;28;20025;-43
2022/04/06 01:53:28;;;;;;;16.50;10.15;;;10.50;99.90;;;;;;5046057;28;20048;-42
2022/04/06 01:55:55;;;;;;;16.33;9.07;;;10.60;99.90;;;;;;5043948;28;20044;-43
2022/04/06 01:58:21;;;;;;;16.17;8.18;;;10.50;99.90;;;;;;5045567;28;20037;-42
2022/04/06 02:00:47;;;;;;;17.00;8.48;;;10.50;99.90;;;;;;5044924;28;20021;-42
2022/04/06 02:03:13;;;;;;;17.98;9.20;;;10.60;99.90;;;;;;5044853;28;20024;-42
2022/04/06 02:05:38;;;;;;;17.73;10.07;;;10.60;99.90;;;;;;5045010;28;20025;-40
2022/04/06 02:08:04;;;;;;;12.48;7.32;;;10.60;99.90;;;;;;5044755;28;20056;-43
2022/04/06 02:10:30;;;;;;;13.45;8.23;;;10.60;99.90;;;;;;5046168;28;20021;-42
2022/04/06 02:12:57;;;;;;;17.02;8.40;;;10.60;99.90;;;;;;5045637;28;20844;-43
2022/04/06 02:15:24;;;;;;;17.95;8.10;;;10.50;99.90;;;;;;5045621;28;20037;-42
2022/04/06 02:17:50;;;;;;;17.23;8.05;;;10.50;99.90;;;;;;5045867;28;20029;-40
2022/04/06 02:20:16;;;;;;;16.88;7.75;;;10.60;99.90;;;;;;5047504;28;20598;-39
2022/04/06 02:22:42;;;;;;;13.75;7.07;;;10.50;99.90;;;;;;5045357;28;20183;-41
2022/04/06 02:25:09;;;;;;;12.80;7.15;;;10.50;99.90;;;;;;5047354;28;20017;-43
2022/04/06 02:27:46;;;;;;;15.93;7.60;;;10.50;99.90;;;;;;5045633;28;20116;-42
2022/04/06 02:30:12;;;;;;;13.15;6.90;;;10.50;99.90;;;;;;5044664;28;20051;-43
2022/04/06 02:32:38;;;;;;;12.68;7.35;;;10.50;99.90;;;;;;5045197;28;20041;-42
2022/04/06 02:35:03;;;;;;;17.42;7.65;;;10.50;99.90;;;;;;5045157;28;20083;-42
2022/04/06 02:37:29;;;;;;;16.73;8.20;;;10.50;99.90;;;;;;5044578;28;20021;-41
2022/04/06 02:39:54;;;;;;;16.00;7.38;;;10.50;99.90;;;;;;5045018;28;20029;-42
2022/04/06 02:42:20;;;;;;;19.27;8.05;;;10.40;99.90;;;;;;5044711;28;20029;-42
2022/04/06 02:44:45;;;;;;;16.83;7.00;;;10.40;99.90;;;;;;5043735;28;20079;-43
2022/04/06 02:47:11;;;;;;;13.00;5.82;;;10.40;99.90;;;;;;5045209;28;20055;-43
2022/04/06 02:49:36;;;;;;;17.63;6.20;;;10.40;99.90;;;;;;5044857;28;20083;-42
2022/04/06 02:52:02;;;;;;;12.07;5.80;;;10.40;99.90;;;;;;5045456;28;20072;-44
2022/04/06 02:54:28;;;;;;;10.77;5.50;;;10.40;99.90;;;;;;5048431;28;20098;-40
2022/04/06 02:56:53;;;;;;;12.00;6.10;;;10.40;99.90;;;;;;5048029;28;20064;-41
2022/04/06 02:59:19;;;;;;;13.15;6.43;;;10.40;99.90;;;;;;5048243;28;20021;-43
2022/04/06 03:01:44;;;;;;;11.27;5.65;;;10.40;99.90;;;;;;5048207;28;20021;-43
2022/04/06 03:04:09;;;;;;;13.95;5.72;;;10.40;99.90;;;;;;5048684;28;20033;-42
2022/04/06 03:06:37;;;;;;;16.17;6.22;;;10.40;99.90;;;;;;5048058;28;20024;-44
2022/04/06 03:09:02;;;;;;;14.25;6.07;;;10.40;99.90;;;;;;5047947;28;20028;-42
2022/04/06 03:11:28;;;;;;;14.40;5.28;;;10.30;99.90;;;;;;5048328;28;20122;-44
2022/04/06 03:13:53;;;;;;;13.98;5.82;;;10.30;99.90;;;;;;5048355;28;20385;-41
2022/04/06 03:16:19;;;;;;;12.25;5.70;;;10.30;99.90;;;;;;5048841;28;20036;-44
2022/04/06 03:18:45;;;;;;;10.30;5.03;;;10.30;99.90;;;;;;5046661;28;20020;-44
2022/04/06 03:21:10;;;;;;;12.68;4.63;;;10.30;99.90;;;;;;5048405;28;20040;-43
2022/04/06 03:23:36;;;;;;;9.27;4.88;;;10.30;99.90;;;;;;5048373;28;20017;-43
2022/04/06 03:26:01;;;;;;;6.93;4.20;;;10.30;99.90;;;;;;5047097;28;20017;-43
2022/04/06 03:28:27;;;;;;;11.85;4.60;;;10.30;99.90;;;;;;5048686;28;20411;-42
2022/04/06 03:30:52;;;;;;;12.95;4.40;;;10.30;99.90;;;;;;5047150;28;20056;-43
2022/04/06 03:33:18;;;;;;;9.45;4.85;;;10.30;99.90;;;;;;5047386;28;20036;-43
2022/04/06 03:35:44;;;;;;;8.98;4.25;;;10.30;99.90;;;;;;5047367;28;20028;-43
2022/04/06 03:38:09;;;;;;;7.90;3.58;;;10.30;99.90;;;;;;5048377;28;20084;-43
2022/04/06 03:40:35;;;;;;;8.35;3.90;;;10.20;99.90;;;;;;5047209;28;20145;-44
2022/04/06 03:43:00;;;;;;;8.43;3.63;;;10.20;99.90;;;;;;5048080;28;20021;-42
2022/04/06 03:45:26;;;;;;;6.85;3.75;;;10.20;99.90;;;;;;5048243;28;20025;-41
2022/04/06 03:47:51;;;;;;;10.38;4.05;;;10.20;99.90;;;;;;5047168;28;20681;-42
2022/04/06 03:50:17;;;;;;;6.63;3.35;;;10.20;99.90;;;;;;5048463;28;20040;-44
2022/04/06 03:52:42;;;;;;;9.40;3.35;;;10.20;99.90;;;;;;5047558;28;20055;-42
2022/04/06 03:55:09;;;;;;;10.48;3.80;;;10.20;99.90;;;;;;5046995;28;20025;-42
2022/04/06 03:57:36;;;;;;;9.05;3.38;;;10.10;99.90;;;;;;5047576;28;20098;-42
2022/04/06 04:00:07;;;;;;;7.30;3.42;;;10.10;99.90;;;;;;5047022;28;20013;-43
2022/04/06 04:02:37;;;;;;;8.13;3.30;;;10.10;99.90;;;;;;5046869;28;20041;-43
2022/04/06 04:05:03;;;;;;;7.55;3.22;;;10.00;99.90;;;;;;5047541;28;20142;-43
2022/04/06 04:07:37;;;;;;;7.07;3.63;;;10.00;99.90;;;;;;5047254;28;20051;-42
2022/04/06 04:10:09;;;;;;;7.05;2.70;;;10.00;99.90;;;;;;5047008;28;20036;-43
2022/04/06 04:12:36;;;;;;;9.88;2.90;;;10.00;99.90;;;;;;5047315;28;20128;-40
2022/04/06 04:15:02;;;;;;;6.95;3.03;;;10.00;99.90;;;;;;5045949;28;20468;-43
2022/04/06 04:17:28;;;;;;;4.90;2.30;;;10.00;99.90;;;;;;5047059;28;20067;-42
2022/04/06 04:19:53;;;;;;;7.90;2.70;;;10.00;99.90;;;;;;5046762;28;20362;-44
2022/04/06 04:22:19;;;;;;;5.47;2.55;;;10.00;99.90;;;;;;5046414;28;20469;-43
2022/04/06 04:24:44;;;;;;;7.00;3.03;;;10.00;99.90;;;;;;5047072;28;20150;-43
2022/04/06 04:27:10;;;;;;;7.68;2.50;;;10.00;99.90;;;;;;5047259;28;20036;-43
2022/04/06 04:29:35;;;;;;;5.00;2.55;;;10.00;99.90;;;;;;5046551;28;20396;-44
2022/04/06 04:32:01;;;;;;;5.30;2.17;;;10.10;99.90;;;;;;5046310;28;20029;-42
2022/04/06 04:34:26;;;;;;;4.95;2.55;;;10.00;99.90;;;;;;5046896;28;20036;-42
2022/04/06 04:36:53;;;;;;;4.07;2.17;;;10.00;99.90;;;;;;5045608;28;20024;-42
2022/04/06 04:39:18;;;;;;;9.35;2.60;;;10.00;99.90;;;;;;5046863;28;20017;-44
2022/04/06 04:41:45;;;;;;;6.57;2.50;;;10.00;99.90;;;;;;5046703;28;20024;-44
2022/04/06 04:44:11;;;;;;;6.55;2.15;;;10.00;99.90;;;;;;5046233;28;20082;-43
2022/04/06 04:46:36;;;;;;;5.53;2.55;;;10.00;99.90;;;;;;5047067;28;20025;-43
2022/04/06 04:49:02;;;;;;;6.38;2.45;;;10.00;99.90;;;;;;5046523;28;20021;-43
2022/04/06 04:51:28;;;;;;;5.07;2.20;;;10.00;99.90;;;;;;5045743;28;20064;-42
2022/04/06 04:53:54;;;;;;;4.85;2.20;;;10.00;99.90;;;;;;5046586;28;20051;-43
2022/04/06 04:56:20;;;;;;;7.85;2.35;;;10.00;99.90;;;;;;5046720;28;20049;-43
2022/04/06 04:58:45;;;;;;;6.35;2.15;;;10.00;99.90;;;;;;5045693;28;20429;-43
2022/04/06 05:01:11;;;;;;;8.15;2.40;;;10.00;99.90;;;;;;5047239;28;20021;-40
2022/04/06 05:03:36;;;;;;;6.07;2.90;;;10.00;99.90;;;;;;5046558;28;20028;-42
2022/04/06 05:06:02;;;;;;;8.18;2.60;;;10.00;99.90;;;;;;5045650;28;20028;-43
2022/04/06 05:08:27;;;;;;;6.07;2.60;;;10.00;99.90;;;;;;5046359;28;20357;-43
2022/04/06 05:10:53;;;;;;;4.53;2.25;;;10.00;99.90;;;;;;5045659;28;20526;-40
2022/04/06 05:13:18;;;;;;;5.38;2.22;;;10.00;99.90;;;;;;5046349;28;20032;-42
2022/04/06 05:15:45;;;;;;;7.15;3.03;;;10.00;99.90;;;;;;5045414;28;20064;-42
2022/04/06 05:18:11;;;;;;;9.52;2.70;;;10.00;99.90;;;;;;5045758;28;20380;-44
2022/04/06 05:20:36;;;;;;;6.30;2.53;;;10.00;99.90;;;;;;5046616;28;20039;-43
2022/04/06 05:23:02;;;;;;;6.47;2.33;;;10.00;99.90;;;;;;5045604;28;20025;-43
2022/04/06 05:25:27;;;;;;;7.47;2.45;;;10.00;99.90;;;;;;5045657;28;20053;-43
2022/04/06 05:27:55;;;;;;;6.68;2.70;;;10.00;99.90;;;;;;5045896;28;20116;-43
2022/04/06 05:30:24;;;;;;;5.57;2.67;;;10.00;99.90;;;;;;5046036;28;20021;-41
2022/04/06 05:32:52;;;;;;;8.07;3.10;;;10.00;99.90;;;;;;5044500;28;20103;-42
2022/04/06 05:35:18;;;;;;;8.48;3.25;;;10.00;99.90;;;;;;5046584;28;20116;-42
2022/04/06 05:37:44;;;;;;;7.88;3.40;;;10.00;99.90;;;;;;5045914;28;20131;-43
2022/04/06 05:40:11;;;;;;;6.32;3.63;;;10.00;99.90;;;;;;5046878;28;20017;-43
2022/04/06 05:42:38;;;;;;;7.93;3.20;;;10.00;99.90;;;;;;5044365;28;20056;-46
2022/04/06 05:45:06;;;;;;;8.02;3.30;;;10.00;99.90;;;;;;5042202;28;20036;-41
2022/04/06 05:47:32;;;;;;;11.63;4.03;;;10.00;99.90;;;;;;5043198;28;20043;-43
2022/04/06 05:49:58;;;;;;;6.88;3.03;;;10.00;99.90;;;;;;5044573;28;20485;-42
2022/04/06 05:52:24;;;;;;;8.90;3.33;;;10.00;99.90;;;;;;5044618;28;20041;-43
2022/04/06 05:54:51;;;;;;;10.20;3.35;;;10.00;99.90;;;;;;5044048;28;20036;-43
2022/04/06 05:57:17;;;;;;;6.93;3.20;;;10.00;99.90;;;;;;5044789;28;20127;-44
2022/04/06 05:59:43;;;;;;;6.97;3.08;;;10.10;99.90;;;;;;5044042;28;20369;-44
2022/04/06 06:02:08;;;;;;;9.00;3.63;;;10.10;99.90;;;;;;5044125;28;20032;-43
2022/04/06 06:04:34;;;;;;;7.57;3.38;;;10.10;99.90;;;;;;5044669;28;20048;-43
2022/04/06 06:07:00;;;;;;;7.40;3.83;;;10.10;99.90;;;;;;5044398;28;20029;-43
2022/04/06 06:09:27;;;;;;;7.25;3.33;;;10.10;99.90;;;;;;5044669;28;20029;-42
2022/04/06 06:11:54;;;;;;;10.20;4.07;;;10.10;99.90;;;;;;5044770;28;20052;-42
2022/04/06 06:14:20;;;;;;;8.63;3.55;;;10.20;99.90;;;;;;5044766;28;20647;-43
2022/04/06 06:16:46;;;;;;;7.85;3.90;;;10.20;99.90;;;;;;5044559;28;20024;-43
2022/04/06 06:19:12;;;;;;;8.82;3.95;;;10.20;99.90;;;;;;5045319;28;20044;-42
2022/04/06 06:21:38;;;;;;;7.53;4.20;;;10.20;99.90;;;;;;5044160;28;20503;-43
2022/04/06 06:24:07;;;;;;;8.18;3.60;;;10.30;99.90;;;;;;5044580;28;20021;-44
2022/04/06 06:26:34;;;;;;;7.88;4.38;;;10.30;99.90;;;;;;5047426;28;20033;-42
2022/04/06 06:28:59;;;;;;;8.13;4.47;;;10.30;99.90;;;;;;5048913;28;20154;-43
2022/04/06 06:31:25;;;;;;;10.18;4.78;;;10.30;99.90;;;;;;5048876;28;20486;-43
2022/04/06 06:33:51;;;;;;;11.00;4.90;;;10.30;99.90;;;;;;5048976;28;20033;-42
2022/04/06 06:36:17;;;;;;;8.38;4.20;;;10.40;99.90;;;;;;5048593;28;20082;-43
2022/04/06 06:38:42;;;;;;;8.70;4.63;;;10.40;99.90;;;;;;5048646;28;20029;-43
2022/04/06 06:41:08;;;;;;;11.30;4.88;;;10.40;99.90;;;;;;5049156;28;20372;-42
2022/04/06 06:43:33;;;;;;;11.77;5.25;;;10.40;99.90;;;;;;5050185;28;20029;-43
2022/04/06 06:45:59;;;;;;;8.77;4.93;;;10.40;99.90;;;;;;5049847;28;20096;-43
2022/04/06 06:48:25;;;;;;;10.80;4.85;;;10.40;99.90;;;;;;5049631;28;20401;-43
2022/04/06 06:50:50;;;;;;;9.55;4.60;;;10.40;99.90;;;;;;5047698;28;20587;-43
2022/04/06 06:53:16;;;;;;;11.25;4.97;;;10.50;99.90;;;;;;5049470;28;20064;-43
2022/04/06 06:55:41;;;;;;;12.93;4.90;;;10.50;99.90;;;;;;5048247;28;20028;-45
2022/04/06 06:58:07;;;;;;;9.88;4.72;;;10.50;99.90;;;;;;5048335;28;20433;-43
2022/04/06 07:00:33;;;;;;;13.52;5.15;;;10.50;99.90;;;;;;5048531;28;20590;-43
2022/04/06 07:02:59;;;;;;;9.80;4.18;;;10.50;99.90;;;;;;5048015;28;20024;-41
2022/04/06 07:05:25;;;;;;;11.40;5.07;;;10.50;99.90;;;;;;5048627;28;20043;-43
2022/04/06 07:07:53;;;;;;;9.63;4.00;;;10.50;99.90;;;;;;5048203;28;20446;-43
2022/04/06 07:10:23;;;;;;;8.50;3.72;;;10.50;99.90;;;;;;5049057;28;20029;-42
2022/04/06 07:12:49;;;;;;;10.80;4.13;;;10.60;99.90;;;;;;5047507;28;20094;-43
2022/04/06 07:15:14;;;;;;;10.60;3.17;;;10.70;99.90;;;;;;5048740;28;20035;-44
2022/04/06 07:17:40;;;;;;;9.75;3.45;;;10.70;99.90;;;;;;5047850;28;20826;-42
2022/04/06 07:20:06;;;;;;;7.88;3.10;;;10.70;99.90;;;;;;5049090;28;20033;-43
2022/04/06 07:22:33;;;;;;;8.93;3.38;;;10.70;99.90;;;;;;5048202;28;20500;-42
2022/04/06 07:24:58;;;;;;;9.50;3.30;;;10.70;99.90;;;;;;5046722;28;20032;-40
2022/04/06 07:27:24;;;;;;;10.95;3.10;;;10.80;99.90;;;;;;5048183;28;20714;-42
2022/04/06 07:29:49;;;;;;;5.75;2.30;;;10.80;99.90;;;;;;5048092;28;20028;-42
2022/04/06 07:32:15;;;;;;;7.20;2.60;;;10.80;99.90;;;;;;5047433;28;20033;-44
2022/04/06 07:34:40;;;;;;;6.30;2.60;;;10.90;99.90;;;;;;5048067;28;20056;-43
2022/04/06 07:37:06;;;;;;;6.97;2.58;;;10.90;99.90;;;;;;5047047;28;20029;-43
2022/04/06 07:39:31;;;;;;;7.65;2.70;;;10.80;99.90;;;;;;5047405;28;20024;-45
2022/04/06 07:41:57;;;;;;;9.65;2.50;;;10.90;99.90;;;;;;5048075;28;20130;-43
2022/04/06 07:44:25;;;;;;;4.95;2.00;;;10.90;99.90;;;;;;5047729;28;20385;-43
2022/04/06 07:46:51;;;;;;;8.95;2.58;;;10.90;99.90;;;;;;5047242;28;20405;-42
2022/04/06 07:49:17;;;;;;;5.18;2.10;;;10.90;99.90;;;;;;5047844;28;20453;-43
2022/04/06 07:51:43;;;;;;;6.05;2.28;;;10.90;99.90;;;;;;5047507;28;20122;-44
2022/04/06 07:54:09;;;;;;;3.72;1.80;;;11.00;99.90;;;;;;5047047;28;20119;-44
2022/04/06 07:56:36;;;;;;;5.32;1.80;;;11.00;99.90;;;;;;5047690;28;20060;-41
2022/04/06 07:59:02;;;;;;;6.15;1.67;;;11.10;99.90;;;;;;5047606;28;20052;-43
2022/04/06 08:01:28;;;;;;;5.57;1.80;;;11.10;99.90;;;;;;5047023;28;20045;-42
2022/04/06 08:03:53;;;;;;;3.30;1.45;;;11.20;99.90;;;;;;5047347;28;20032;-42
2022/04/06 08:06:19;;;;;;;4.90;1.63;;;11.20;99.90;;;;;;5047701;28;20029;-42
2022/04/06 08:08:45;;;;;;;3.22;1.40;;;11.30;99.90;;;;;;5046508;28;20021;-42
2022/04/06 08:11:10;;;;;;;2.58;1.25;;;11.30;99.90;;;;;;5047766;28;20579;-41
2022/04/06 08:13:36;;;;;;;2.42;1.58;;;11.40;99.90;;;;;;5047356;28;20033;-43
2022/04/06 08:16:01;;;;;;;3.42;1.75;;;11.40;99.90;;;;;;5046377;28;20357;-43
2022/04/06 08:18:28;;;;;;;3.72;1.50;;;11.50;99.90;;;;;;5047493;28;20025;-43
2022/04/06 08:20:54;;;;;;;5.28;1.50;;;11.50;99.90;;;;;;5044682;28;20068;-41
2022/04/06 08:23:20;;;;;;;4.75;1.60;;;11.60;99.90;;;;;;5048042;28;20063;-41
2022/04/06 08:25:46;;;;;;;4.32;1.70;;;11.60;99.90;;;;;;5046231;28;20079;-43
2022/04/06 08:28:12;;;;;;;5.55;1.77;;;11.60;99.90;;;;;;5047101;28;20504;-43
2022/04/06 08:30:42;;;;;;;5.85;1.55;;;11.50;99.90;;;;;;5047811;28;20552;-42
2022/04/06 08:33:10;;;;;;;6.00;1.67;;;11.50;99.90;;;;;;5047297;28;20453;-43
2022/04/06 08:35:36;;;;;;;4.68;1.92;;;11.40;99.90;;;;;;5046094;28;20049;-43
2022/04/06 08:38:03;;;;;;;4.53;1.80;;;11.40;99.90;;;;;;5045954;28;20391;-42
2022/04/06 08:40:30;;;;;;;7.18;2.10;;;11.40;99.90;;;;;;5046889;28;20025;-43
2022/04/06 08:42:56;;;;;;;4.80;1.90;;;11.40;99.90;;;;;;5045722;28;20033;-42
2022/04/06 08:45:22;;;;;;;6.68;2.00;;;11.40;99.90;;;;;;5046317;28;20935;-41
2022/04/06 08:47:49;;;;;;;4.90;1.88;;;11.40;99.90;;;;;;5044774;28;20035;-42
2022/04/06 08:50:17;;;;;;;5.57;2.00;;;11.40;99.90;;;;;;5044526;28;20028;-43
2022/04/06 08:52:44;;;;;;;7.35;2.40;;;11.40;99.90;;;;;;5046011;28;20488;-43
2022/04/06 08:55:11;;;;;;;6.00;2.20;;;11.40;99.90;;;;;;5047623;28;20021;-41
2022/04/06 08:57:36;;;;;;;7.80;2.45;;;11.40;99.90;;;;;;5045717;28;20048;-42
2022/04/06 09:00:03;;;;;;;4.57;2.20;;;11.30;99.90;;;;;;5046286;28;20762;-42
2022/04/06 09:02:28;;;;;;;3.85;2.00;;;11.30;99.90;;;;;;5047093;28;20435;-43
2022/04/06 09:04:55;;;;;;;4.25;2.17;;;11.20;99.90;;;;;;5045265;28;20017;-42
2022/04/06 09:07:23;;;;;;;6.63;3.60;;;11.20;99.90;;;;;;5046253;28;20362;-42
2022/04/06 09:09:53;;;;;;;4.85;2.40;;;11.20;99.90;;;;;;5048559;28;20039;-43
2022/04/06 09:12:21;;;;;;;4.72;2.22;;;11.20;99.90;;;;;;5049304;28;20029;-42
2022/04/06 09:14:47;;;;;;;4.28;2.67;;;11.20;99.90;;;;;;5047679;28;20021;-43
2022/04/06 09:17:19;;;;;;;7.05;2.75;;;11.20;99.90;;;;;;5047616;28;20032;-43
2022/04/06 09:19:49;;;;;;;6.35;2.60;;;11.20;99.90;;;;;;5045885;28;20526;-43
2022/04/06 09:22:15;;;;;;;4.88;2.67;;;11.10;99.90;;;;;;5046088;28;20036;-42
2022/04/06 09:24:41;;;;;;;5.90;2.88;;;11.10;99.90;;;;;;5045220;28;20358;-42
2022/04/06 09:27:07;;;;;;;5.30;3.15;;;11.00;99.90;;;;;;5045720;28;20036;-42
2022/04/06 09:29:34;;;;;;;8.75;3.33;;;10.90;99.90;;;;;;5045909;28;20025;-43
2022/04/06 09:32:10;;;;;;;7.28;3.80;;;10.80;99.90;;;;;;5044076;28;20054;-43
2022/04/06 09:34:37;;;;;;;6.30;3.67;;;10.80;99.90;;;;;;5043764;28;20025;-43
2022/04/06 09:37:31;;;;;;;11.10;4.22;;;10.70;99.90;;;;;;5044190;28;20431;-42
2022/04/06 09:40:06;;;;;;;4.82;3.20;;;10.70;99.90;;;;;;5044974;28;20021;-43
2022/04/06 09:42:32;;;;;;;6.18;3.47;;;10.60;99.90;;;;;;5045511;28;20029;-43
2022/04/06 09:47:53;;;;;;;7.32;4.15;;;10.60;99.90;;;;;;5045088;28;20105;-43
2022/04/06 09:50:24;;;;;;;8.73;4.13;;;10.60;99.90;;;;;;5045373;28;20396;-43
2022/04/06 09:52:53;;;;;;;10.32;4.50;;;10.50;99.90;;;;;;5044282;28;20098;-43
2022/04/06 09:55:21;;;;;;;8.07;4.07;;;10.50;99.90;;;;;;5046570;28;20025;-42
2022/04/06 09:57:50;;;;;;;7.55;4.25;;;10.50;99.90;;;;;;5044965;28;20061;-43
2022/04/06 10:00:18;;;;;;;8.60;4.85;;;10.50;99.90;;;;;;5044735;28;20021;-43
2022/04/06 10:02:50;;;;;;;11.02;4.70;;;10.40;99.90;;;;;;5044961;28;20029;-42
2022/04/06 10:05:18;;;;;;;4.95;3.95;;;10.50;99.90;;;;;;5045671;28;20084;-43
2022/04/06 10:07:43;;;;;;;7.22;4.05;;;10.50;99.90;;;;;;5044006;28;20025;-42
2022/04/06 10:10:12;;;;;;;5.10;3.83;;;10.60;99.90;;;;;;5045800;28;20025;-43
2022/04/06 10:12:39;;;;;;;7.55;3.90;;;10.60;99.90;;;;;;5045065;28;20040;-44
2022/04/06 10:15:05;;;;;;;4.65;4.13;;;10.60;99.90;;;;;;5044211;28;20618;-44
2022/04/06 10:17:31;;;;;;;7.32;4.70;;;10.60;99.90;;;;;;5045673;28;20029;-43
2022/04/06 10:20:07;;;;;;;5.43;4.65;;;10.60;99.90;;;;;;5044796;28;20060;-44
2022/04/06 10:22:43;;;;;;;8.50;4.63;;;10.50;99.90;;;;;;5044658;28;20024;-43
2022/04/06 10:25:12;;;;;;;5.38;4.22;;;10.50;99.90;;;;;;5045845;28;20523;-42
2022/04/06 10:27:43;;;;;;;5.28;4.20;;;10.50;99.90;;;;;;5043938;28;20025;-44
2022/04/06 10:30:14;;;;;;;7.65;4.25;;;10.50;99.90;;;;;;5044955;28;20071;-42
2022/04/06 10:32:41;;;;;;;7.50;4.90;;;10.50;99.90;;;;;;5045280;28;20637;-44
2022/04/06 10:35:20;;;;;;;8.48;4.97;;;10.50;99.90;;;;;;5041202;28;20028;-43
2022/04/06 10:37:52;;;;;;;10.73;5.32;;;10.50;99.90;;;;;;5044355;28;20044;-42
2022/04/06 10:40:18;;;;;;;6.30;4.77;;;10.50;99.90;;;;;;5041951;28;20059;-44
2022/04/06 10:42:45;;;;;;;7.60;4.55;;;10.50;99.90;;;;;;5044261;28;20543;-45
2022/04/06 10:45:26;;;;;;;9.85;4.70;;;10.50;99.90;;;;;;5045284;28;20025;-42
2022/04/06 10:48:10;;;;;;;10.85;5.50;;;10.50;99.90;;;;;;5044635;28;20527;-42
2022/04/06 10:50:36;;;;;;;7.72;4.60;;;10.50;99.90;;;;;;5044440;28;20025;-42
2022/04/06 10:53:22;;;;;;;5.93;5.05;;;10.50;99.90;;;;;;5044536;28;20032;-43
2022/04/06 10:56:02;;;;;;;5.88;5.05;;;10.40;99.90;;;;;;5040037;28;20107;-43
2022/04/06 10:58:28;;;;;;;8.77;4.95;;;10.40;99.90;;;;;;5045344;28;20123;-42
2022/04/06 11:01:13;;;;;;;7.95;5.28;;;10.40;99.90;;;;;;5044360;28;20108;-43
2022/04/06 11:03:44;;;;;;;6.95;5.43;;;10.40;99.90;;;;;;5044019;28;20021;-43
2022/04/06 11:06:10;;;;;;;8.80;5.57;;;10.50;99.90;;;;;;5041880;28;20048;-43
2022/04/06 11:11:46;;;;;;;7.93;5.57;;;10.40;99.90;;;;;;5042691;28;20144;-43
2022/04/06 11:14:33;;;;;;;12.20;6.07;;;10.40;99.90;;;;;;5048325;28;20400;-43
2022/04/06 11:17:18;;;;;;;10.20;5.85;;;10.40;99.90;;;;;;5035986;28;20036;-43
2022/04/06 11:19:51;;;;;;;7.60;5.85;;;10.40;99.90;;;;;;5047667;28;20029;-43
2022/04/06 11:22:16;;;;;;;8.73;6.45;;;10.40;99.90;;;;;;5048736;28;20044;-42
2022/04/06 11:24:43;;;;;;;10.45;6.75;;;10.50;99.90;;;;;;5047604;28;20014;-42
2022/04/06 11:27:09;;;;;;;7.28;6.05;;;10.60;99.90;;;;;;5048319;28;20104;-43
2022/04/06 11:29:37;;;;;;;7.95;6.10;;;10.70;99.90;;;;;;5048895;28;20121;-43
2022/04/06 11:32:04;;;;;;;9.45;5.72;;;10.70;99.90;;;;;;5043809;28;20033;-43
2022/04/06 11:34:30;;;;;;;7.35;5.88;;;10.80;99.90;;;;;;5048317;28;20365;-43
2022/04/06 11:37:00;;;;;;;8.50;5.90;;;10.90;99.90;;;;;;5047661;28;20029;-43
2022/04/06 11:39:28;;;;;;;6.55;5.55;;;10.90;99.90;;;;;;5047046;28;20028;-44
2022/04/06 11:41:54;;;;;;;8.35;6.38;;;11.00;99.90;;;;;;5047382;28;20052;-43
2022/04/06 11:44:21;;;;;;;7.82;5.28;;;11.00;99.90;;;;;;5047950;28;20502;-42
2022/04/06 11:46:47;;;;;;;12.90;5.65;;;11.10;99.90;;;;;;5046736;28;20485;-43
2022/04/06 11:49:18;;;;;;;9.00;5.60;;;11.10;99.90;;;;;;5047299;28;20045;-43
2022/04/06 11:51:44;;;;;;;10.38;5.85;;;11.10;99.90;;;;;;5046860;28;20123;-43
2022/04/06 11:54:10;;;;;;;7.30;5.07;;;11.10;99.90;;;;;;5047338;28;20116;-42
2022/04/06 11:56:35;;;;;;;9.30;4.90;;;11.10;99.90;;;;;;5047269;28;20068;-44
2022/04/06 11:59:01;;;;;;;7.93;5.50;;;11.00;99.90;;;;;;5046713;28;20488;-43
2022/04/06 12:01:40;;;;;;;6.97;5.22;;;11.00;99.90;;;;;;5047623;28;20454;-43
2022/04/06 12:04:13;;;;;;;8.20;5.07;;;11.00;99.90;;;;;;5047750;28;20021;-42
2022/04/06 12:06:38;;;;;;;7.38;5.07;;;11.00;99.90;;;;;;5047337;28;20017;-42
2022/04/06 12:09:06;;;;;;;9.68;4.57;;;11.10;99.90;;;;;;5047151;28;20033;-43
2022/04/06 12:11:32;;;;;;;7.40;5.60;;;11.20;99.90;;;;;;5046102;28;20068;-43
2022/04/06 12:13:58;;;;;;;8.18;4.65;;;11.20;99.90;;;;;;5046081;28;20460;-43
2022/04/06 12:16:23;;;;;;;6.50;4.05;;;11.30;99.90;;;;;;5047369;28;20459;-41
2022/04/06 12:18:51;;;;;;;10.20;5.03;;;11.30;99.90;;;;;;5046517;28;20409;-41
2022/04/06 12:21:25;;;;;;;8.07;4.35;;;11.40;99.90;;;;;;5046972;28;20108;-43
2022/04/06 12:23:52;;;;;;;7.35;4.45;;;11.40;99.90;;;;;;5043340;28;20052;-43
2022/04/06 12:26:17;;;;;;;7.85;4.63;;;11.50;99.90;;;;;;5045507;28;20043;-44
2022/04/06 12:28:47;;;;;;;6.15;4.35;;;11.50;99.90;;;;;;5045713;28;20013;-43
2022/04/06 12:31:13;;;;;;;6.53;4.38;;;11.50;99.90;;;;;;5047150;28;20033;-42
2022/04/06 12:33:46;;;;;;;9.40;3.88;;;11.60;99.90;;;;;;5046772;28;20032;-44
2022/04/06 12:36:27;;;;;;;5.68;3.80;;;11.60;99.90;;;;;;5046437;28;20535;-42
2022/04/06 12:39:09;;;;;;;7.18;3.90;;;11.60;99.90;;;;;;5046436;28;20365;-42
2022/04/06 12:41:57;;;;;;;6.60;4.20;;;11.60;99.90;;;;;;5046167;28;20025;-44
2022/04/06 12:44:23;;;;;;;7.00;3.97;;;11.70;99.90;;;;;;5046191;28;20508;-42
2022/04/06 12:46:50;;;;;;;7.97;4.13;;;11.70;99.90;;;;;;5046812;28;20032;-44
2022/04/06 12:49:37;;;;;;;8.68;4.57;;;11.60;99.90;;;;;;5045735;28;20036;-43
2022/04/06 12:52:08;;;;;;;5.43;3.75;;;11.70;99.90;;;;;;5045895;28;20156;-42
2022/04/06 12:54:35;;;;;;;9.07;4.20;;;11.70;99.90;;;;;;5046095;28;20053;-45